Strait of Georgia - north of Nanaimo: Past 24 Hour Conditions

 

La Perouse Bank - 46206

04:00 AM PST 28 November 2014Buoy position: 48.83N 126.0W
This table is a summary of hourly weather conditions for the past 24 hours.
Date / Time
(PST)
Wind(knots) Wave height(m) Wave period(s) Pressure(kPa) Air tempC) Water tempC)
28 November 2014
4:00 WNW 18 gust 23 3.3 14.0 100.2 9 12
3:00 WNW 19 gust 25 3.3 14.0 100.3 9 12
2:00 NW 18 gust 21 3.4 13.0 100.3 10 12
1:00 NW 19 gust 23 3.5 13.0 100.2 10 12
0:00 WNW 18 gust 21 3.2 14.0 100.2 10 12
27 November 2014
23:00 WNW 19 gust 23 3.3 14.0 100.2 10 12
22:00 WNW 21 gust 25 3.4 13.0 100.2 9 12
21:00 SW 23 gust 29 3.4 14.0 100.1 13 12
20:00 SSW 19 gust 25 3.5 13.0 100.1 13 12
19:00 SSW 18 gust 23 3.4 15.0 100.2 13 12
18:00 SSW 16 gust 23 3.5 15.0 100.2 13 12
17:00 S 16 gust 19 3.5 12.0 100.3 13 12
16:00 SSW 14 gust 18 3.6 13.0 100.3 13 12
15:00 SSW 16 gust 19 3.5 12.0 100.4 13 12
14:00 SW 18 gust 21 3.5 11.0 100.4 13 12
13:00 SW 19 gust 21 3.4 12.0 100.4 13 12
12:00 SW 19 gust 23 3.3 12.0 100.4 13 12
11:00 S 21 gust 27 3.5 11.0 100.4 13 12
10:00 SSW 21 gust 25 3.3 10.0 100.5 13 12
9:00 S 19 gust 23 3.1 10.0 100.5 13 12
8:00 SSW 18 gust 21 3.1 11.0 100.5 13 12
7:00 SSW 16 gust 19 3.1 11.0 100.6 13 12
6:00 SSW 16 gust 19 2.8 10.0 100.5 13 12
5:00 SSW 16 gust 19 2.7 9.0 100.6 13 12
4:00 SSW 16 gust 19 2.4 9.0 100.6 13 12
 
Map of Pacific - South Coast marine weather areas Tsawwassen Ferry Terminal South Nomad - 46036 Sentry Shoal - 46131 South Brooks - 46132 Halibut Bank - 46146 South Moresby - 46147 South Hecate Strait - 46185 West Sea Otter - 46204 La Perouse Bank - 46206 East Dellwood - 46207 Discovery Island Esquimalt Harbour Kelp Reefs Malahat Race Rocks Lightstation Saturna Island Sheringham Point University of Victoria Victoria Gonzales Victoria Int'l Airport Ballenas Islands Campbell River Airport Comox Airport Entrance Island Fanny Island Nanaimo Airport Port Hardy Airport Sisters Islets Estevan Point Sartine Island Solander Island Tofino Airport Grief Point Powell River Airport Sechelt Cape St.James Bella Bella Airport Bella Coola Airport Cathedral Point Herbert Island Point Atkinson Sand Heads Lightstation Vancouver Harbour Vancouver Int'l Airport West Vancouver Port Alberni Howe Sound - Pam Rocks Squamish Airport